Time;durP1;ratioP1;P1;durP2;ratioP2;P2;SDS_P1;SDS_P2;PMS_P1;PMS_P2;Temp;Humidity;BMP_temperature;BMP_pressure;BME280_temperature;BME280_humidity;BME280_pressure;Samples;Min_cycle;Max_cycle;Signal;HPM_P1;HPM_P2
2023/07/07 00:00:12;;;;;;;6.93;2.95;;;;;;;22.16;60.39;99852.22;4319231;33;20100;-88
2023/07/07 00:02:41;;;;;;;5.78;3.08;;;;;;;22.23;60.39;99850.75;4331008;33;20476;-86
2023/07/07 00:05:07;;;;;;;4.95;2.62;;;;;;;22.18;60.39;99861.75;4333115;33;20517;-88
2023/07/07 00:07:33;;;;;;;5.07;2.70;;;;;;;22.23;60.39;99856.06;4319287;33;20164;-88
2023/07/07 00:09:58;;;;;;;5.57;2.95;;;;;;;22.14;60.39;99857.66;4319550;33;20119;-88
2023/07/07 00:12:24;;;;;;;4.80;3.00;;;;;;;22.14;60.39;99854.16;4331019;33;28077;-88
2023/07/07 00:14:49;;;;;;;8.15;3.20;;;;;;;22.14;60.39;99852.34;4319476;33;20118;-88
2023/07/07 00:17:16;;;;;;;8.93;3.00;;;;;;;22.29;60.40;99856.47;4331692;33;20115;-88
2023/07/07 00:19:41;;;;;;;6.47;2.90;;;;;;;22.35;60.40;99861.25;4333025;33;20104;-88
2023/07/07 00:22:07;;;;;;;4.93;3.15;;;;;;;22.50;60.41;99863.69;4331920;33;20162;-88
2023/07/07 00:24:33;;;;;;;4.43;3.20;;;;;;;22.46;60.40;99854.25;4319473;33;20382;-87
2023/07/07 00:26:59;;;;;;;6.37;3.47;;;;;;;22.33;60.40;99847.28;4331260;33;20077;-88
2023/07/07 00:29:25;;;;;;;5.28;2.97;;;;;;;22.31;60.39;99849.22;4319370;33;20127;-87
2023/07/07 00:31:50;;;;;;;5.82;3.37;;;;;;;22.12;60.39;99859.56;4318859;33;20411;-87
2023/07/07 00:34:15;;;;;;;5.30;3.10;;;;;;;22.23;60.38;99856.91;4320805;33;20135;-89
2023/07/07 00:36:41;;;;;;;5.97;3.15;;;;;;;22.31;60.39;99854.53;4307327;33;20112;-89
2023/07/07 00:39:06;;;;;;;7.78;3.10;;;;;;;22.20;60.39;99857.16;4306429;33;26268;-88
2023/07/07 00:41:32;;;;;;;5.82;3.30;;;;;;;22.05;60.38;99855.72;4331030;33;24025;-89
2023/07/07 00:43:59;;;;;;;5.35;3.40;;;;;;;21.99;60.38;99862.28;4331947;33;20158;-92
2023/07/07 00:46:24;;;;;;;4.37;3.00;;;;;;;22.17;60.38;99860.06;4307595;33;20149;-91
2023/07/07 00:48:50;;;;;;;5.95;3.42;;;;;;;22.23;60.38;99859.56;4319308;33;20438;-90
2023/07/07 00:51:24;;;;;;;6.70;3.70;;;;;;;21.97;60.38;99858.91;4319189;33;20725;-91
2023/07/07 00:53:50;;;;;;;6.10;3.58;;;;;;;22.00;60.37;99855.19;4307227;33;20138;-90
2023/07/07 00:56:28;;;;;;;5.03;3.37;;;;;;;22.43;60.40;99857.16;4319338;33;20108;-90
2023/07/07 00:58:57;;;;;;;4.87;3.12;;;;;;;21.99;60.37;99853.50;4332932;33;20103;-91
2023/07/07 01:01:22;;;;;;;9.40;3.92;;;;;;;22.08;60.38;99852.84;4319351;33;20438;-91
2023/07/07 01:03:50;;;;;;;6.97;3.62;;;;;;;21.85;60.37;99864.34;4320193;33;20142;-91
2023/07/07 01:06:18;;;;;;;5.65;3.72;;;;;;;22.04;60.38;99867.28;4320196;33;20393;-90
2023/07/07 01:08:44;;;;;;;5.95;3.58;;;;;;;21.81;60.37;99870.84;4320599;33;20080;-90
2023/07/07 01:11:09;;;;;;;6.50;4.03;;;;;;;21.84;60.37;99867.94;4320763;33;20402;-91
2023/07/07 01:13:35;;;;;;;5.60;3.53;;;;;;;21.71;60.37;99871.53;4324301;33;20143;-90
2023/07/07 01:16:18;;;;;;;7.62;4.05;;;;;;;21.98;60.37;99867.72;4338263;33;20108;-90
2023/07/07 01:18:55;;;;;;;5.62;3.47;;;;;;;21.91;60.37;99867.34;4326850;33;20087;-89
2023/07/07 01:21:29;;;;;;;7.07;3.45;;;;;;;21.88;60.37;99861.44;4337042;33;20087;-91
2023/07/07 01:24:24;;;;;;;5.18;3.70;;;;;;;21.61;60.35;99872.34;4338581;33;20111;-90
2023/07/07 01:27:06;;;;;;;9.18;3.50;;;;;;;21.61;60.35;99875.00;4337235;33;20063;-91
2023/07/07 01:29:44;;;;;;;6.28;3.65;;;;;;;21.65;60.36;99866.69;4325079;33;20165;-90
2023/07/07 01:32:13;;;;;;;5.37;3.60;;;;;;;21.73;60.36;99869.59;4337162;33;20702;-90
2023/07/07 01:34:39;;;;;;;5.22;3.28;;;;;;;21.65;60.36;99871.16;4312633;33;20170;-91
2023/07/07 01:37:04;;;;;;;9.27;3.55;;;;;;;21.59;60.35;99869.81;4324967;33;20181;-91
2023/07/07 01:39:30;;;;;;;5.15;3.42;;;;;;;21.80;60.37;99875.28;4325008;33;20139;-91
2023/07/07 01:42:04;;;;;;;6.22;3.72;;;;;;;21.60;60.35;99876.81;4324806;33;20092;-91
2023/07/07 01:45:08;;;;;;;6.85;3.53;;;;;;;21.60;60.35;99879.44;4312500;33;20112;-91
2023/07/07 01:47:35;;;;;;;6.25;3.33;;;;;;;21.70;60.36;99875.12;4316717;33;20093;-91
2023/07/07 01:50:12;;;;;;;5.40;3.35;;;;;;;21.53;60.34;99872.94;4324724;33;20099;-92
2023/07/07 01:52:44;;;;;;;8.27;3.55;;;;;;;21.61;60.35;99875.84;4325018;33;20110;-91
2023/07/07 01:55:37;;;;;;;10.57;3.65;;;;;;;21.51;60.35;99869.53;4324689;33;20533;-90
2023/07/07 01:58:03;;;;;;;5.37;3.50;;;;;;;21.66;60.36;99873.69;4324602;33;20206;-90
2023/07/07 02:00:29;;;;;;;6.55;3.60;;;;;;;21.36;60.34;99876.84;4312249;33;20092;-90
2023/07/07 02:02:56;;;;;;;6.20;3.80;;;;;;;21.43;60.35;99879.87;4324302;33;20245;-90
2023/07/07 02:05:21;;;;;;;8.18;3.30;;;;;;;21.26;60.34;99875.81;4312423;33;20137;-89
2023/07/07 02:07:46;;;;;;;5.32;3.20;;;;;;;21.34;60.34;99880.56;4324117;33;20144;-91
2023/07/07 02:10:12;;;;;;;5.05;2.97;;;;;;;21.50;60.35;99878.44;4324392;33;20127;-92
2023/07/07 02:12:37;;;;;;;8.90;4.07;;;;;;;21.43;60.35;99872.75;4324192;33;20697;-92
2023/07/07 02:15:03;;;;;;;8.30;4.20;;;;;;;21.37;60.34;99875.03;4312141;33;26302;-92
2023/07/07 02:17:29;;;;;;;5.95;3.17;;;;;;;21.53;60.35;99872.06;4324214;33;20123;-92
2023/07/07 02:19:55;;;;;;;6.22;3.28;;;;;;;21.55;60.34;99868.38;4324424;33;20100;-91
2023/07/07 02:22:21;;;;;;;5.85;3.47;;;;;;;21.37;60.34;99873.22;4324502;33;20167;-91
2023/07/07 02:24:46;;;;;;;8.52;3.70;;;;;;;21.55;60.35;99871.00;4334289;33;20153;-92
2023/07/07 02:27:11;;;;;;;5.28;3.40;;;;;;;21.33;60.34;99868.28;4321589;33;24633;-92
2023/07/07 02:29:37;;;;;;;5.87;3.30;;;;;;;21.50;60.35;99865.19;4321855;33;20092;-93
2023/07/07 02:32:04;;;;;;;4.75;3.42;;;;;;;21.42;60.34;99870.22;4309803;33;20107;-90
2023/07/07 02:34:29;;;;;;;5.18;3.37;;;;;;;21.55;60.35;99876.31;4321673;33;20444;-90
2023/07/07 02:36:55;;;;;;;7.12;3.85;;;;;;;21.26;60.34;99877.63;4321634;33;20143;-91
2023/07/07 02:39:21;;;;;;;5.80;3.37;;;;;;;21.26;60.34;99880.28;4321813;33;20174;-90
2023/07/07 02:41:46;;;;;;;6.90;3.80;;;;;;;21.32;60.33;99879.84;4309840;33;20457;-91
2023/07/07 02:44:12;;;;;;;9.10;3.50;;;;;;;21.38;60.34;99869.63;4322626;33;20131;-90
2023/07/07 02:46:38;;;;;;;5.65;3.15;;;;;;;21.30;60.33;99873.81;4311529;33;20131;-91
2023/07/07 02:49:03;;;;;;;6.47;3.20;;;;;;;21.04;60.33;99884.47;4320956;33;23357;-89
2023/07/07 02:51:29;;;;;;;5.45;3.60;;;;;;;21.18;60.34;99880.81;4329266;33;20461;-90
2023/07/07 02:53:56;;;;;;;5.32;3.28;;;;;;;21.10;60.33;99877.91;4333594;33;26031;-90
2023/07/07 02:56:22;;;;;;;7.05;3.60;;;;;;;21.14;60.32;99882.84;4333757;33;20167;-91
2023/07/07 02:58:47;;;;;;;8.00;3.30;;;;;;;21.04;60.33;99888.91;4321568;33;20392;-91
2023/07/07 03:01:15;;;;;;;5.68;3.25;;;;;;;20.94;60.31;99893.19;4309352;33;20083;-91
2023/07/07 03:03:41;;;;;;;6.47;3.42;;;;;;;20.84;60.31;99887.75;4309199;33;20528;-90
2023/07/07 03:06:08;;;;;;;6.87;3.22;;;;;;;20.99;60.32;99891.06;4321109;33;20217;-91
2023/07/07 03:08:34;;;;;;;7.40;3.17;;;;;;;21.02;60.33;99893.47;4309197;33;20178;-90
2023/07/07 03:11:05;;;;;;;5.80;3.47;;;;;;;21.05;60.33;99901.19;4321508;33;20139;-91
2023/07/07 03:13:30;;;;;;;4.32;2.95;;;;;;;21.00;60.32;99898.88;4320858;33;20115;-90
2023/07/07 03:15:56;;;;;;;7.97;3.42;;;;;;;20.96;60.32;99899.22;4321186;33;20155;-90
2023/07/07 03:18:21;;;;;;;6.90;3.47;;;;;;;21.13;60.33;99904.97;4309064;33;20200;-91
2023/07/07 03:20:50;;;;;;;7.70;3.83;;;;;;;21.08;60.32;99909.78;4321174;33;20371;-90
2023/07/07 03:23:15;;;;;;;5.87;3.08;;;;;;;21.07;60.32;99916.03;4321570;33;20107;-90
2023/07/07 03:25:41;;;;;;;4.22;2.83;;;;;;;20.98;60.32;99914.03;4320555;33;24728;-90
2023/07/07 03:28:06;;;;;;;6.07;3.62;;;;;;;21.14;60.33;99905.81;4308568;33;23345;-91
2023/07/07 03:30:34;;;;;;;6.55;2.95;;;;;;;21.06;60.32;99909.03;4320707;33;24002;-90
2023/07/07 03:33:00;;;;;;;6.35;3.10;;;;;;;21.05;60.32;99911.78;4321388;33;20107;-92
2023/07/07 03:35:26;;;;;;;4.95;2.78;;;;;;;21.28;60.34;99918.91;4320955;33;20096;-91
2023/07/07 03:37:52;;;;;;;6.87;3.67;;;;;;;21.09;60.33;99916.75;4320983;33;20482;-90
2023/07/07 03:40:17;;;;;;;9.63;3.50;;;;;;;21.28;60.34;99924.19;4321326;33;20091;-90
2023/07/07 03:42:42;;;;;;;8.15;3.53;;;;;;;21.18;60.33;99931.13;4320743;33;23399;-90
2023/07/07 03:45:08;;;;;;;7.03;3.60;;;;;;;21.03;60.32;99935.69;4321431;33;20138;-92
2023/07/07 03:47:34;;;;;;;6.00;3.40;;;;;;;21.05;60.32;99927.66;4321215;33;20084;-91
2023/07/07 03:49:59;;;;;;;7.97;3.62;;;;;;;20.84;60.31;99938.84;4321333;33;20083;-91
2023/07/07 03:52:25;;;;;;;11.18;4.30;;;;;;;20.88;60.32;99933.34;4321488;33;20170;-90
2023/07/07 03:54:50;;;;;;;7.70;3.42;;;;;;;20.84;60.31;99932.72;4321215;33;20142;-91
2023/07/07 03:57:16;;;;;;;6.03;3.17;;;;;;;20.83;60.31;99931.03;4321253;33;20155;-91
2023/07/07 03:59:41;;;;;;;9.13;3.83;;;;;;;20.77;60.31;99942.03;4321089;33;20138;-90
2023/07/07 04:02:07;;;;;;;5.80;3.28;;;;;;;20.62;60.30;99937.84;4320451;33;20156;-88
2023/07/07 04:04:32;;;;;;;10.07;3.35;;;;;;;20.84;60.31;99938.84;4333263;33;20198;-88
2023/07/07 04:06:58;;;;;;;6.37;3.42;;;;;;;20.61;60.30;99944.94;4332526;33;28519;-90
2023/07/07 04:09:24;;;;;;;7.75;4.32;;;;;;;20.65;60.30;99942.91;4309019;33;20432;-89
2023/07/07 04:11:49;;;;;;;5.07;3.40;;;;;;;20.66;60.30;99941.94;4322222;33;20155;-91
2023/07/07 04:14:15;;;;;;;5.00;3.47;;;;;;;20.71;60.31;99937.19;4322866;33;20525;-89
2023/07/07 04:16:40;;;;;;;10.23;3.90;;;;;;;20.75;60.31;99943.94;4331153;33;20102;-91
2023/07/07 04:19:05;;;;;;;5.95;3.50;;;;;;;20.74;60.31;99940.44;4326584;33;20100;-90
2023/07/07 04:21:32;;;;;;;5.30;2.97;;;;;;;20.93;60.31;99945.28;4320792;33;20190;-89
2023/07/07 04:23:58;;;;;;;5.65;3.12;;;;;;;20.80;60.32;99955.03;4321131;33;20091;-91
2023/07/07 04:26:24;;;;;;;7.12;3.42;;;;;;;20.83;60.31;99957.47;4333048;33;20114;-89
2023/07/07 04:28:53;;;;;;;5.55;3.17;;;;;;;21.08;60.32;99959.22;4320649;33;20100;-89
2023/07/07 04:31:20;;;;;;;9.68;3.50;;;;;;;21.25;60.34;99958.84;4332982;33;20159;-90
2023/07/07 04:33:47;;;;;;;7.30;3.60;;;;;;;21.60;60.35;99960.72;4320777;33;20127;-90
2023/07/07 04:36:15;;;;;;;7.75;3.45;;;;;;;21.92;60.37;99961.78;4308307;33;20087;-89
2023/07/07 04:38:41;;;;;;;6.93;3.22;;;;;;;22.11;60.38;99971.03;4321740;33;20099;-90
2023/07/07 04:41:07;;;;;;;7.80;3.58;;;;;;;22.24;60.38;99970.00;4308921;33;20469;-88
2023/07/07 04:43:32;;;;;;;5.65;3.60;;;;;;;22.31;60.38;99965.06;4333303;33;20126;-88
2023/07/07 04:45:58;;;;;;;8.10;3.17;;;;;;;22.17;60.38;99967.91;4320337;33;20135;-89
2023/07/07 04:48:24;;;;;;;9.45;3.60;;;;;;;22.01;60.37;99968.22;4320158;33;20437;-89
2023/07/07 04:50:49;;;;;;;7.72;3.22;;;;;;;22.13;60.38;99974.41;4319896;33;25803;-88
2023/07/07 04:53:15;;;;;;;5.20;3.10;;;;;;;22.43;60.39;99971.22;4320143;33;20150;-89
2023/07/07 04:55:45;;;;;;;7.85;3.62;;;;;;;22.30;60.38;99974.81;4332448;33;20401;-89
2023/07/07 04:58:10;;;;;;;9.48;3.75;;;;;;;22.26;60.38;99967.22;4333937;33;20083;-89
2023/07/07 05:00:35;;;;;;;7.20;3.42;;;;;;;22.13;60.38;99967.31;4319989;33;20174;-89
2023/07/07 05:03:01;;;;;;;5.93;3.30;;;;;;;22.33;60.38;99965.78;4320107;33;20095;-90
2023/07/07 05:05:26;;;;;;;5.87;3.15;;;;;;;22.40;60.39;99974.94;4320173;33;20148;-88
2023/07/07 05:07:52;;;;;;;7.87;3.85;;;;;;;22.48;60.39;99961.94;4320096;33;20393;-89
2023/07/07 05:10:17;;;;;;;10.07;3.53;;;;;;;22.62;60.40;99968.81;4320149;33;20159;-87
2023/07/07 05:12:42;;;;;;;6.28;3.80;;;;;;;22.53;60.40;99972.19;4319979;33;20146;-89
2023/07/07 05:15:08;;;;;;;7.47;3.47;;;;;;;22.49;60.40;99973.41;4307964;33;20100;-88
2023/07/07 05:17:33;;;;;;;6.87;3.45;;;;;;;22.48;60.40;99977.03;4319982;33;20104;-87
2023/07/07 05:19:59;;;;;;;9.18;3.70;;;;;;;22.65;60.41;99973.88;4319751;33;20104;-88
2023/07/07 05:22:24;;;;;;;5.28;3.20;;;;;;;22.41;60.39;99984.59;4331571;33;30681;-88
2023/07/07 05:24:50;;;;;;;6.55;3.90;;;;;;;22.55;60.40;99980.88;4332162;33;20715;-88
2023/07/07 05:27:15;;;;;;;9.98;4.18;;;;;;;22.62;60.40;99979.44;4333273;33;20391;-88
2023/07/07 05:29:40;;;;;;;8.50;3.75;;;;;;;22.47;60.40;99992.06;4319865;33;20108;-87
2023/07/07 05:32:06;;;;;;;7.65;3.97;;;;;;;22.46;60.40;99985.06;4319625;33;20112;-88
2023/07/07 05:34:32;;;;;;;8.05;4.03;;;;;;;22.48;60.39;99993.78;4307628;33;20088;-88
2023/07/07 05:36:57;;;;;;;10.00;3.72;;;;;;;22.54;60.41;99992.47;4331859;33;20126;-88
2023/07/07 05:39:22;;;;;;;6.55;3.50;;;;;;;22.60;60.41;99991.97;4332419;33;20479;-88
2023/07/07 05:41:48;;;;;;;7.07;3.35;;;;;;;22.53;60.40;99996.91;4332774;33;20362;-90
2023/07/07 05:44:13;;;;;;;5.45;3.35;;;;;;;22.76;60.41;99992.47;4339406;33;20107;-90
2023/07/07 05:46:39;;;;;;;6.25;3.28;;;;;;;22.55;60.40;99996.81;4337508;33;20107;-90
2023/07/07 05:49:05;;;;;;;9.35;4.25;;;;;;;22.57;60.41;99992.22;4320173;33;20151;-89
2023/07/07 05:51:30;;;;;;;4.43;3.05;;;;;;;22.53;60.40;100001.38;4333082;33;20095;-89
2023/07/07 05:53:56;;;;;;;9.85;3.35;;;;;;;22.51;60.40;99993.53;4331320;33;20118;-89
2023/07/07 05:56:25;;;;;;;6.70;3.20;;;;;;;22.63;60.40;99999.69;4319061;33;24192;-90
2023/07/07 05:58:53;;;;;;;6.18;2.90;;;;;;;22.89;60.42;99997.66;4331798;33;20120;-89
2023/07/07 06:01:19;;;;;;;6.20;3.28;;;;;;;23.13;60.43;99995.72;4309380;33;20103;-89
2023/07/07 06:03:44;;;;;;;7.82;3.47;;;;;;;23.40;60.45;99994.47;4321469;33;20163;-89
2023/07/07 06:06:10;;;;;;;6.03;3.70;;;;;;;23.19;60.45;100005.03;4308957;33;20132;-90
2023/07/07 06:08:36;;;;;;;11.60;3.62;;;;;;;23.18;60.43;100005.97;4322162;33;20112;-90
2023/07/07 06:11:01;;;;;;;7.20;4.03;;;;;;;23.42;60.45;100009.31;4322571;33;20150;-90
2023/07/07 06:13:28;;;;;;;5.62;3.47;;;;;;;23.51;60.45;100000.59;4332951;33;20458;-89
2023/07/07 06:15:54;;;;;;;7.82;3.28;;;;;;;23.71;60.46;100011.44;4321708;33;20084;-89
2023/07/07 06:18:19;;;;;;;7.22;3.15;;;;;;;23.81;60.46;100012.34;4309416;33;20104;-87
2023/07/07 06:20:49;;;;;;;14.48;4.55;;;;;;;23.89;60.48;100013.41;4333812;33;20092;-87
2023/07/07 06:23:15;;;;;;;6.85;3.37;;;;;;;24.05;60.47;100017.44;4321283;33;20374;-89
2023/07/07 06:25:40;;;;;;;7.07;3.50;;;;;;;24.23;60.48;100018.56;4333724;33;20152;-87
2023/07/07 06:28:06;;;;;;;5.32;2.92;;;;;;;24.38;60.50;100019.13;4333266;33;20183;-87
2023/07/07 06:30:31;;;;;;;7.15;3.42;;;;;;;24.45;60.50;100017.63;4333498;33;20121;-88
2023/07/07 06:32:58;;;;;;;5.97;3.20;;;;;;;24.63;60.51;100013.37;4333697;33;20477;-87
2023/07/07 06:35:27;;;;;;;5.10;3.20;;;;;;;24.89;60.52;100012.94;4333633;33;20111;-88
2023/07/07 06:37:52;;;;;;;5.00;3.17;;;;;;;25.38;60.54;100020.97;4321380;33;20146;-88
2023/07/07 06:40:17;;;;;;;6.70;3.65;;;;;;;25.50;60.56;100021.69;4333483;33;20171;-87
2023/07/07 06:42:43;;;;;;;5.57;3.15;;;;;;;25.52;60.55;100026.87;4334899;33;20134;-88
2023/07/07 06:45:09;;;;;;;7.87;3.35;;;;;;;25.47;60.56;100023.78;4308774;33;25672;-88
2023/07/07 06:47:34;;;;;;;5.68;3.03;;;;;;;25.61;60.56;100028.75;4321292;33;20126;-88
2023/07/07 06:49:59;;;;;;;5.43;2.87;;;;;;;25.82;60.57;100023.31;4320908;33;27196;-88
2023/07/07 06:52:25;;;;;;;4.35;3.20;;;;;;;25.92;60.57;100017.00;4333566;33;20087;-88
2023/07/07 06:54:52;;;;;;;8.82;3.67;;;;;;;26.12;60.59;100025.81;4321339;33;20139;-88
2023/07/07 06:57:17;;;;;;;5.28;2.80;;;;;;;26.43;60.60;100023.00;4333629;33;20167;-86
2023/07/07 06:59:42;;;;;;;5.50;3.47;;;;;;;26.56;60.60;100024.38;4321277;33;20164;-88
2023/07/07 07:02:11;;;;;;;4.10;3.05;;;;;;;26.74;60.62;100019.13;4333602;33;20151;-88
2023/07/07 07:04:36;;;;;;;5.55;2.92;;;;;;;26.99;60.63;100023.00;4333753;33;20119;-88
2023/07/07 07:07:02;;;;;;;6.10;3.20;;;;;;;26.97;60.63;100024.06;4335377;33;20642;-88
2023/07/07 07:09:27;;;;;;;6.40;3.08;;;;;;;27.15;60.64;100022.34;4322677;33;20147;-88
2023/07/07 07:11:53;;;;;;;7.30;3.37;;;;;;;27.42;60.65;100019.66;4339826;33;20105;-87
2023/07/07 07:14:19;;;;;;;6.18;3.17;;;;;;;27.65;60.67;100029.94;4338339;33;20099;-87
2023/07/07 07:16:45;;;;;;;5.53;3.47;;;;;;;27.92;60.68;100026.34;4333587;33;20107;-87
2023/07/07 07:19:10;;;;;;;4.45;3.05;;;;;;;27.87;60.68;100029.50;4333572;33;20133;-87
2023/07/07 07:21:35;;;;;;;6.32;3.00;;;;;;;27.78;60.67;100025.91;4332974;33;25500;-89
2023/07/07 07:24:01;;;;;;;6.97;3.10;;;;;;;27.90;60.67;100031.88;4333382;33;20088;-87
2023/07/07 07:26:27;;;;;;;5.80;3.12;;;;;;;27.92;60.68;100034.38;4333514;33;20159;-88
2023/07/07 07:28:52;;;;;;;7.70;3.20;;;;;;;27.96;60.69;100035.78;4334808;33;20118;-87
2023/07/07 07:31:18;;;;;;;8.73;3.55;;;;;;;28.16;60.70;100026.59;4321232;33;20091;-88
2023/07/07 07:33:43;;;;;;;9.55;3.85;;;;;;;28.40;60.71;100031.31;4320898;33;20481;-88
2023/07/07 07:36:09;;;;;;;4.85;2.87;;;;;;;28.60;60.71;100035.44;4334371;33;20111;-88
2023/07/07 07:38:34;;;;;;;4.87;3.03;;;;;;;28.60;60.71;100040.81;4334397;33;20162;-88
2023/07/07 07:41:00;;;;;;;5.12;2.97;;;;;;;28.50;60.72;100044.59;4333147;33;20107;-87
2023/07/07 07:43:25;;;;;;;10.25;3.53;;;;;;;28.71;60.73;100042.41;4334033;33;20080;-87
2023/07/07 07:45:51;;;;;;;8.45;3.42;;;;;;;28.95;60.74;100044.41;4320812;33;20390;-88
2023/07/07 07:48:16;;;;;;;8.98;3.87;;;;;;;29.25;60.76;100045.69;4321044;33;20188;-88
2023/07/07 07:50:41;;;;;;;4.12;2.83;;;;;;;29.22;60.75;100041.50;4333703;33;24631;-89
2023/07/07 07:53:07;;;;;;;4.30;3.15;;;;;;;29.24;60.75;100039.50;4321254;33;20100;-88
2023/07/07 07:55:32;;;;;;;6.30;3.72;;;;;;;29.33;60.76;100048.41;4334531;33;20123;-88
2023/07/07 07:57:58;;;;;;;4.47;2.92;;;;;;;29.40;60.75;100046.78;4333025;33;20108;-88
2023/07/07 08:00:23;;;;;;;6.75;3.05;;;;;;;29.52;60.77;100044.63;4320967;33;20131;-88
2023/07/07 08:02:50;;;;;;;4.65;3.37;;;;;;;29.78;60.78;100049.91;4333095;33;20138;-87
2023/07/07 08:05:15;;;;;;;5.87;3.40;;;;;;;29.82;60.78;100057.47;4321029;33;20135;-88
2023/07/07 08:07:41;;;;;;;7.47;3.22;;;;;;;29.98;60.79;100056.63;4333031;33;20148;-88
2023/07/07 08:10:07;;;;;;;5.53;3.03;;;;;;;30.26;60.80;100057.16;4332965;33;20107;-87
2023/07/07 08:12:33;;;;;;;6.35;2.90;;;;;;;30.49;60.81;100047.41;4332902;33;20099;-87
2023/07/07 08:14:58;;;;;;;6.57;3.05;;;;;;;30.92;60.83;100049.88;4332654;33;29054;-88
2023/07/07 08:17:23;;;;;;;6.12;3.08;;;;;;;31.05;60.84;100051.03;4332931;33;20167;-87
2023/07/07 08:19:49;;;;;;;5.35;3.17;;;;;;;30.95;60.84;100054.91;4320422;33;20571;-88
2023/07/07 08:22:16;;;;;;;6.43;3.78;;;;;;;30.83;60.84;100052.59;4332422;33;20458;-88
2023/07/07 08:24:47;;;;;;;7.53;3.33;;;;;;;30.42;60.81;100059.03;4333095;33;20125;-88
2023/07/07 08:27:13;;;;;;;9.20;3.42;;;;;;;30.19;60.79;100061.53;4333209;33;20108;-88
2023/07/07 08:29:39;;;;;;;7.18;3.03;;;;;;;30.16;60.80;100062.72;4334287;33;20091;-87
2023/07/07 08:32:05;;;;;;;5.07;2.97;;;;;;;30.07;60.80;100065.59;4334403;33;20122;-88
2023/07/07 08:34:30;;;;;;;6.57;3.25;;;;;;;30.12;60.79;100063.22;4333510;33;20100;-87
2023/07/07 08:36:59;;;;;;;6.55;3.50;;;;;;;30.25;60.81;100064.37;4333540;33;20671;-89
2023/07/07 08:39:25;;;;;;;8.77;3.55;;;;;;;30.35;60.81;100063.41;4337946;33;20117;-88
2023/07/07 08:41:52;;;;;;;7.37;3.70;;;;;;;30.38;60.81;100071.94;4340608;33;20108;-88
2023/07/07 08:44:20;;;;;;;6.32;3.60;;;;;;;30.38;60.81;100068.44;4334350;33;20104;-86
2023/07/07 08:47:27;;;;;;;10.32;3.20;;;;;;;30.52;60.83;100067.72;4320632;33;20318;-87
2023/07/07 08:50:11;;;;;;;5.03;3.25;;;;;;;30.80;60.83;100061.00;4318258;33;20117;-87
2023/07/07 08:52:49;;;;;;;8.35;3.65;;;;;;;31.02;60.85;100063.97;4334034;33;20092;-87
2023/07/07 08:55:28;;;;;;;6.15;3.47;;;;;;;31.34;60.86;100061.19;4332506;33;20112;-85
2023/07/07 08:58:31;;;;;;;4.82;3.15;;;;;;;31.63;60.87;100056.97;4332790;33;20178;-85
2023/07/07 09:01:03;;;;;;;7.60;3.72;;;;;;;31.86;60.88;100063.25;4312348;33;20183;-85
2023/07/07 09:03:53;;;;;;;6.37;4.22;;;;;;;32.17;60.90;100067.72;4333771;33;20433;-85
2023/07/07 09:06:35;;;;;;;4.80;3.08;;;;;;;32.33;60.91;100075.72;4332473;33;20103;-85
2023/07/07 09:09:11;;;;;;;6.50;3.58;;;;;;;32.73;60.93;100068.28;4332701;33;20112;-85
2023/07/07 09:11:55;;;;;;;6.05;3.12;;;;;;;32.82;60.93;100069.88;4320291;33;20122;-85
2023/07/07 09:14:20;;;;;;;5.20;3.62;;;;;;;32.87;60.93;100065.59;4333731;33;20719;-85
2023/07/07 09:16:46;;;;;;;7.07;3.70;;;;;;;32.83;60.93;100063.47;4320245;33;20136;-84
2023/07/07 09:19:16;;;;;;;5.72;3.80;;;;;;;32.87;60.93;100062.06;4320228;33;20167;-85
2023/07/07 09:21:48;;;;;;;;;;;;;;;32.74;60.92;100062.69;4320371;33;20118;-85
2023/07/07 09:24:39;;;;;;;7.07;3.75;;;;;;;32.45;60.92;100076.12;4332229;33;20281;-85
2023/07/07 09:27:10;;;;;;;8.02;3.95;;;;;;;32.37;60.92;100077.03;4332393;33;20108;-84
2023/07/07 09:29:36;;;;;;;5.65;3.70;;;;;;;32.44;60.92;100072.59;4332484;33;20175;-85
2023/07/07 09:32:02;;;;;;;6.93;4.07;;;;;;;32.26;60.91;100072.09;4332146;33;20175;-86
2023/07/07 09:34:28;;;;;;;5.85;3.92;;;;;;;32.05;60.91;100078.09;4321242;33;20114;-85
2023/07/07 09:37:05;;;;;;;5.60;3.55;;;;;;;32.12;60.91;100070.13;4335238;33;20104;-85
2023/07/07 09:39:31;;;;;;;6.45;3.83;;;;;;;32.26;60.91;100075.63;4335358;33;20167;-85
2023/07/07 09:42:02;;;;;;;8.33;3.93;;;;;;;32.42;60.91;100073.81;4335336;33;20351;-85
2023/07/07 09:44:30;;;;;;;8.00;4.25;;;;;;;32.37;60.92;100071.63;4335487;33;20586;-85
2023/07/07 09:47:25;;;;;;;8.40;3.78;;;;;;;32.11;60.90;100076.53;4335232;33;20116;-85
2023/07/07 09:49:58;;;;;;;6.80;3.55;;;;;;;32.20;60.92;100073.63;4321692;33;20112;-86
2023/07/07 09:52:47;;;;;;;10.13;3.72;;;;;;;32.23;60.90;100073.25;4321937;33;20100;-85
2023/07/07 09:55:21;;;;;;;6.35;4.10;;;;;;;32.17;60.91;100075.81;4334478;33;20115;-86
2023/07/07 09:58:07;;;;;;;6.60;3.83;;;;;;;31.97;60.90;100078.19;4322004;33;20500;-86
2023/07/07 10:00:34;;;;;;;8.80;4.30;;;;;;;31.95;60.91;100075.66;4334792;33;20096;-85
2023/07/07 10:02:59;;;;;;;9.05;3.87;;;;;;;31.59;60.88;100079.88;4322661;33;20100;-86
2023/07/07 10:05:32;;;;;;;6.60;4.07;;;;;;;31.35;60.87;100089.75;4334466;33;36322;-85
2023/07/07 10:07:57;;;;;;;5.55;3.55;;;;;;;31.44;60.87;100082.47;4340318;33;20120;-85
2023/07/07 10:10:22;;;;;;;6.40;3.30;;;;;;;31.73;60.89;100080.00;4339198;33;20119;-85
2023/07/07 10:12:48;;;;;;;6.75;3.80;;;;;;;31.77;60.89;100074.28;4321210;33;20162;-86
2023/07/07 10:15:22;;;;;;;7.97;4.30;;;;;;;31.89;60.90;100080.91;4333860;33;20442;-86
2023/07/07 10:17:54;;;;;;;5.43;3.42;;;;;;;31.66;60.88;100084.37;4334988;33;20164;-85
2023/07/07 10:20:20;;;;;;;6.78;3.78;;;;;;;31.74;60.89;100084.37;4321525;33;20468;-86
2023/07/07 10:22:45;;;;;;;6.30;3.65;;;;;;;31.71;60.89;100081.19;4333778;33;20099;-86
2023/07/07 10:25:14;;;;;;;6.18;3.55;;;;;;;31.70;60.89;100082.16;4333705;33;20143;-86
2023/07/07 10:27:39;;;;;;;5.87;3.58;;;;;;;31.71;60.89;100086.56;4335022;33;20532;-85
2023/07/07 10:30:05;;;;;;;5.47;3.70;;;;;;;31.36;60.87;100080.66;4321451;33;20128;-85
2023/07/07 10:32:30;;;;;;;7.03;3.85;;;;;;;31.64;60.89;100082.88;4334999;33;20512;-86
2023/07/07 10:35:00;;;;;;;6.15;3.80;;;;;;;31.76;60.89;100076.12;4333602;33;20142;-86
2023/07/07 10:37:31;;;;;;;12.98;4.93;;;;;;;31.82;60.90;100075.41;4333613;33;20099;-85
2023/07/07 10:39:57;;;;;;;6.82;4.15;;;;;;;31.59;60.88;100079.88;4321456;33;20441;-86
2023/07/07 10:42:23;;;;;;;6.12;4.05;;;;;;;31.35;60.87;100083.53;4333798;33;20510;-86
2023/07/07 10:44:49;;;;;;;5.10;3.47;;;;;;;31.13;60.86;100083.25;4333355;33;20134;-85
2023/07/07 10:47:31;;;;;;;5.70;3.92;;;;;;;31.19;60.87;100072.84;4334934;33;20386;-85
2023/07/07 10:49:58;;;;;;;6.05;3.62;;;;;;;31.37;60.87;100076.12;4331899;33;20111;-85
2023/07/07 10:52:51;;;;;;;6.95;4.35;;;;;;;31.27;60.87;100072.81;4321505;33;20096;-85
2023/07/07 10:55:28;;;;;;;5.68;3.83;;;;;;;31.41;60.88;100062.16;4335004;33;20152;-86
2023/07/07 10:58:39;;;;;;;7.05;4.05;;;;;;;31.70;60.90;100061.47;4334898;33;20434;-86
2023/07/07 11:01:27;;;;;;;7.75;4.20;;;;;;;32.04;60.91;100062.97;4330622;33;20118;-86
2023/07/07 11:04:28;;;;;;;8.13;4.10;;;;;;;32.38;60.92;100064.41;4321227;33;20087;-86
2023/07/07 11:06:59;;;;;;;7.22;3.92;;;;;;;32.54;60.93;100056.16;4318931;33;20487;-86
2023/07/07 11:09:31;;;;;;;8.85;4.55;;;;;;;32.32;60.92;100061.41;4334769;33;20500;-86
2023/07/07 11:11:58;;;;;;;5.78;3.72;;;;;;;32.29;60.92;100066.34;4335203;33;20784;-86
2023/07/07 11:14:30;;;;;;;8.18;4.00;;;;;;;32.28;60.93;100064.66;4334966;33;20095;-86
2023/07/07 11:17:22;;;;;;;6.35;4.00;;;;;;;32.17;60.91;100063.19;4333606;33;20114;-86
2023/07/07 11:20:12;;;;;;;7.18;3.95;;;;;;;32.49;60.92;100051.34;4321549;33;20100;-86
2023/07/07 11:22:52;;;;;;;6.95;4.03;;;;;;;32.83;60.95;100052.69;4335179;33;20108;-86
2023/07/07 11:25:38;;;;;;;6.22;3.80;;;;;;;33.21;60.96;100050.72;4334951;33;20088;-86
2023/07/07 11:28:16;;;;;;;6.05;3.78;;;;;;;33.51;60.98;100046.97;4321988;33;20131;-87
2023/07/07 11:30:58;;;;;;;5.43;3.70;;;;;;;33.36;60.97;100043.50;4335910;33;20151;-86
2023/07/07 11:33:56;;;;;;;6.25;4.10;;;;;;;33.47;60.98;100047.53;4323536;33;20271;-87
2023/07/07 11:36:54;;;;;;;4.53;3.30;;;;;;;33.49;60.98;100046.31;4339413;33;20140;-87